sensor_id;sensor_type;location;lat;lon;timestamp;pressure;altitude;pressure_sealevel;temperature;humidity
11172;BME280;5642;50.830;12.082;2022-11-20T00:01:28;99142.84;;;1.05;45.46
11172;BME280;5642;50.830;12.082;2022-11-20T00:03:56;99144.56;;;1.06;45.66
11172;BME280;5642;50.830;12.082;2022-11-20T00:06:26;99146.28;;;1.05;45.59
11172;BME280;5642;50.830;12.082;2022-11-20T00:08:58;99141.97;;;1.03;45.34
11172;BME280;5642;50.830;12.082;2022-11-20T00:11:27;99143.66;;;0.96;45.47
11172;BME280;5642;50.830;12.082;2022-11-20T00:13:56;99128.16;;;0.81;45.55
11172;BME280;5642;50.830;12.082;2022-11-20T00:16:27;99138.47;;;0.81;45.51
11172;BME280;5642;50.830;12.082;2022-11-20T00:18:54;99132.41;;;0.71;45.85
11172;BME280;5642;50.830;12.082;2022-11-20T00:21:22;99135.84;;;0.66;45.75
11172;BME280;5642;50.830;12.082;2022-11-20T00:23:50;99133.22;;;0.58;45.64
11172;BME280;5642;50.830;12.082;2022-11-20T00:26:18;99147.00;;;0.60;45.57
11172;BME280;5642;50.830;12.082;2022-11-20T00:28:53;99139.22;;;0.57;45.54
11172;BME280;5642;50.830;12.082;2022-11-20T00:31:19;99145.25;;;0.56;45.50
11172;BME280;5642;50.830;12.082;2022-11-20T00:33:46;99137.53;;;0.56;45.35
11172;BME280;5642;50.830;12.082;2022-11-20T00:36:18;99122.91;;;0.49;45.50
11172;BME280;5642;50.830;12.082;2022-11-20T00:38:45;99134.06;;;0.48;45.71
11172;BME280;5642;50.830;12.082;2022-11-20T00:41:15;99128.00;;;0.40;45.51
11172;BME280;5642;50.830;12.082;2022-11-20T00:43:42;99138.31;;;0.35;45.91
11172;BME280;5642;50.830;12.082;2022-11-20T00:46:19;99133.94;;;0.24;45.72
11172;BME280;5642;50.830;12.082;2022-11-20T00:48:45;99129.63;;;0.20;46.05
11172;BME280;5642;50.830;12.082;2022-11-20T00:51:13;99133.91;;;0.18;45.91
11172;BME280;5642;50.830;12.082;2022-11-20T00:53:40;99130.47;;;0.14;45.97
11172;BME280;5642;50.830;12.082;2022-11-20T00:56:10;99130.44;;;0.13;45.59
11172;BME280;5642;50.830;12.082;2022-11-20T00:58:38;99131.28;;;0.10;45.94
11172;BME280;5642;50.830;12.082;2022-11-20T01:01:13;99121.78;;;0.03;45.99
11172;BME280;5642;50.830;12.082;2022-11-20T01:03:42;99126.13;;;0.09;46.00
11172;BME280;5642;50.830;12.082;2022-11-20T01:06:13;99128.72;;;0.10;46.18
11172;BME280;5642;50.830;12.082;2022-11-20T01:08:40;99127.84;;;0.10;46.06
11172;BME280;5642;50.830;12.082;2022-11-20T01:11:10;99129.59;;;0.12;45.81
11172;BME280;5642;50.830;12.082;2022-11-20T01:13:37;99127.84;;;0.11;45.96
11172;BME280;5642;50.830;12.082;2022-11-20T01:16:09;99131.31;;;0.13;45.70
11172;BME280;5642;50.830;12.082;2022-11-20T01:18:39;99119.28;;;0.11;45.74
11172;BME280;5642;50.830;12.082;2022-11-20T01:21:08;99118.41;;;0.10;45.74
11172;BME280;5642;50.830;12.082;2022-11-20T01:23:37;99123.56;;;0.10;45.53
11172;BME280;5642;50.830;12.082;2022-11-20T01:26:06;99126.97;;;0.09;45.67
11172;BME280;5642;50.830;12.082;2022-11-20T01:28:33;99125.28;;;0.10;45.71
11172;BME280;5642;50.830;12.082;2022-11-20T01:30:59;99122.72;;;0.11;45.87
11172;BME280;5642;50.830;12.082;2022-11-20T01:33:26;99128.72;;;0.15;45.57
11172;BME280;5642;50.830;12.082;2022-11-20T01:35:52;99122.75;;;0.14;45.85
11172;BME280;5642;50.830;12.082;2022-11-20T01:38:19;99121.88;;;0.17;45.47
11172;BME280;5642;50.830;12.082;2022-11-20T01:40:54;99123.59;;;0.18;45.36
11172;BME280;5642;50.830;12.082;2022-11-20T01:43:20;99125.34;;;0.20;45.62
11172;BME280;5642;50.830;12.082;2022-11-20T01:45:58;99113.34;;;0.25;45.86
11172;BME280;5642;50.830;12.082;2022-11-20T01:48:28;99119.34;;;0.26;45.39
11172;BME280;5642;50.830;12.082;2022-11-20T01:50:57;99099.56;;;0.19;45.56
11172;BME280;5642;50.830;12.082;2022-11-20T01:53:29;99104.72;;;0.19;45.44
11172;BME280;5642;50.830;12.082;2022-11-20T01:56:00;99101.25;;;0.15;45.48
11172;BME280;5642;50.830;12.082;2022-11-20T01:58:31;99104.69;;;0.11;45.85
11172;BME280;5642;50.830;12.082;2022-11-20T02:00:59;99090.06;;;0.06;46.08
11172;BME280;5642;50.830;12.082;2022-11-20T02:03:25;99095.19;;;0.04;45.58
11172;BME280;5642;50.830;12.082;2022-11-20T02:06:01;99099.50;;;0.04;45.92
11172;BME280;5642;50.830;12.082;2022-11-20T02:08:30;99092.59;;;-0.02;45.81
11172;BME280;5642;50.830;12.082;2022-11-20T02:10:56;99087.41;;;-0.05;45.80
11172;BME280;5642;50.830;12.082;2022-11-20T02:13:22;99078.81;;;-0.10;45.78
11172;BME280;5642;50.830;12.082;2022-11-20T02:16:18;99088.31;;;0.02;46.13
11172;BME280;5642;50.830;12.082;2022-11-20T02:18:46;99090.06;;;0.04;45.92
11172;BME280;5642;50.830;12.082;2022-11-20T02:26:23;99088.31;;;-0.02;45.60
11172;BME280;5642;50.830;12.082;2022-11-20T02:28:54;99085.69;;;-0.06;45.78
11172;BME280;5642;50.830;12.082;2022-11-20T02:31:20;99091.69;;;-0.06;46.06
11172;BME280;5642;50.830;12.082;2022-11-20T02:33:46;99089.13;;;-0.09;46.10
11172;BME280;5642;50.830;12.082;2022-11-20T02:36:15;99089.94;;;-0.16;45.74
11172;BME280;5642;50.830;12.082;2022-11-20T02:38:42;99088.19;;;-0.18;45.92
11172;BME280;5642;50.830;12.082;2022-11-20T02:41:09;99096.78;;;-0.18;45.56
11172;BME280;5642;50.830;12.082;2022-11-20T02:43:35;99092.50;;;-0.19;45.86
11172;BME280;5642;50.830;12.082;2022-11-20T02:46:01;99075.31;;;-0.24;45.87
11172;BME280;5642;50.830;12.082;2022-11-20T02:48:27;99082.22;;;-0.14;45.85
11172;BME280;5642;50.830;12.082;2022-11-20T02:50:53;99083.13;;;-0.09;45.75
11172;BME280;5642;50.830;12.082;2022-11-20T02:53:19;99081.41;;;-0.06;45.93
11172;BME280;5642;50.830;12.082;2022-11-20T02:55:45;99074.50;;;-0.11;45.89
11172;BME280;5642;50.830;12.082;2022-11-20T02:58:11;99087.41;;;-0.05;45.57
11172;BME280;5642;50.830;12.082;2022-11-20T03:00:37;99099.47;;;-0.03;45.83
11172;BME280;5642;50.830;12.082;2022-11-20T03:03:04;99086.59;;;0.00;45.52
11172;BME280;5642;50.830;12.082;2022-11-20T03:05:30;99088.31;;;0.03;45.63
11172;BME280;5642;50.830;12.082;2022-11-20T03:07:56;99078.88;;;-0.01;45.70
11172;BME280;5642;50.830;12.082;2022-11-20T03:10:22;99084.94;;;0.07;45.51
11172;BME280;5642;50.830;12.082;2022-11-20T03:12:53;99077.22;;;0.12;45.61
11172;BME280;5642;50.830;12.082;2022-11-20T03:15:20;99066.06;;;0.13;45.61
11172;BME280;5642;50.830;12.082;2022-11-20T03:17:46;99044.56;;;0.06;45.59
11172;BME280;5642;50.830;12.082;2022-11-20T03:20:12;99045.44;;;0.11;45.82
11172;BME280;5642;50.830;12.082;2022-11-20T03:22:38;99050.66;;;0.20;45.36
11172;BME280;5642;50.830;12.082;2022-11-20T03:25:04;99035.19;;;0.14;45.67
11172;BME280;5642;50.830;12.082;2022-11-20T03:27:34;99054.09;;;0.27;45.48
11172;BME280;5642;50.830;12.082;2022-11-20T03:30:01;99023.97;;;0.09;45.48
11172;BME280;5642;50.830;12.082;2022-11-20T03:32:27;99042.06;;;0.20;45.51
11172;BME280;5642;50.830;12.082;2022-11-20T03:34:53;99054.09;;;0.25;45.40
11172;BME280;5642;50.830;12.082;2022-11-20T03:37:19;99052.38;;;0.20;45.32
11172;BME280;5642;50.830;12.082;2022-11-20T03:39:45;99050.63;;;0.17;45.36
11172;BME280;5642;50.830;12.082;2022-11-20T03:42:11;99046.31;;;0.15;45.92
11172;BME280;5642;50.830;12.082;2022-11-20T03:44:57;99044.63;;;0.14;45.71
11172;BME280;5642;50.830;12.082;2022-11-20T03:47:23;99045.47;;;0.13;45.57
11172;BME280;5642;50.830;12.082;2022-11-20T03:49:49;99050.63;;;0.19;45.87
11172;BME280;5642;50.830;12.082;2022-11-20T03:52:15;99047.19;;;0.18;45.28
11172;BME280;5642;50.830;12.082;2022-11-20T03:54:41;99052.38;;;0.20;45.42
11172;BME280;5642;50.830;12.082;2022-11-20T03:57:07;99032.59;;;0.14;45.84
11172;BME280;5642;50.830;12.082;2022-11-20T03:59:33;99049.81;;;0.21;45.34
11172;BME280;5642;50.830;12.082;2022-11-20T04:01:59;99037.75;;;0.17;45.68
11172;BME280;5642;50.830;12.082;2022-11-20T04:04:25;99041.22;;;0.24;45.59
11172;BME280;5642;50.830;12.082;2022-11-20T04:06:51;99041.22;;;0.24;45.02
11172;BME280;5642;50.830;12.082;2022-11-20T04:09:17;99040.34;;;0.25;45.39
11172;BME280;5642;50.830;12.082;2022-11-20T04:11:43;99044.66;;;0.21;45.24
11172;BME280;5642;50.830;12.082;2022-11-20T04:14:14;99036.88;;;0.17;45.40
11172;BME280;5642;50.830;12.082;2022-11-20T04:16:41;99034.28;;;0.15;45.23
11172;BME280;5642;50.830;12.082;2022-11-20T04:19:16;99034.31;;;0.14;45.43
11172;BME280;5642;50.830;12.082;2022-11-20T04:21:43;99023.13;;;0.07;45.38
11172;BME280;5642;50.830;12.082;2022-11-20T04:24:09;99031.72;;;0.12;45.20
11172;BME280;5642;50.830;12.082;2022-11-20T04:26:39;99026.59;;;0.14;45.29
11172;BME280;5642;50.830;12.082;2022-11-20T04:29:05;99017.13;;;0.13;45.42
11172;BME280;5642;50.830;12.082;2022-11-20T04:31:33;99031.75;;;0.14;45.17
11172;BME280;5642;50.830;12.082;2022-11-20T04:34:01;99034.31;;;0.12;45.08
11172;BME280;5642;50.830;12.082;2022-11-20T04:36:28;99038.56;;;0.10;45.46
11172;BME280;5642;50.830;12.082;2022-11-20T04:38:56;99029.97;;;0.04;45.58
11172;BME280;5642;50.830;12.082;2022-11-20T04:41:24;99031.66;;;0.02;45.54
11172;BME280;5642;50.830;12.082;2022-11-20T04:43:52;99039.41;;;0.00;45.52
11172;BME280;5642;50.830;12.082;2022-11-20T04:46:20;99030.81;;;-0.02;45.52
11172;BME280;5642;50.830;12.082;2022-11-20T04:48:47;99022.19;;;-0.04;45.71
11172;BME280;5642;50.830;12.082;2022-11-20T04:51:13;99028.22;;;-0.04;45.69
11172;BME280;5642;50.830;12.082;2022-11-20T04:53:39;99029.06;;;-0.06;45.64
11172;BME280;5642;50.830;12.082;2022-11-20T04:56:07;99034.22;;;-0.03;45.65
11172;BME280;5642;50.830;12.082;2022-11-20T04:58:34;99034.22;;;-0.05;45.41
11172;BME280;5642;50.830;12.082;2022-11-20T05:01:05;99029.94;;;-0.04;45.54
11172;BME280;5642;50.830;12.082;2022-11-20T05:03:31;99029.91;;;-0.07;45.51
11172;BME280;5642;50.830;12.082;2022-11-20T05:06:02;99034.22;;;-0.03;45.12
11172;BME280;5642;50.830;12.082;2022-11-20T05:08:29;99027.38;;;-0.03;45.64
11172;BME280;5642;50.830;12.082;2022-11-20T05:11:08;99019.63;;;-0.04;45.35
11172;BME280;5642;50.830;12.082;2022-11-20T05:13:35;99016.22;;;-0.03;45.43
11172;BME280;5642;50.830;12.082;2022-11-20T05:16:11;99015.34;;;-0.02;45.32
11172;BME280;5642;50.830;12.082;2022-11-20T05:18:39;99019.66;;;-0.03;45.83
11172;BME280;5642;50.830;12.082;2022-11-20T05:21:06;99009.34;;;-0.01;46.04
11172;BME280;5642;50.830;12.082;2022-11-20T05:23:32;99007.66;;;0.03;45.84
11172;BME280;5642;50.830;12.082;2022-11-20T05:25:59;99007.66;;;0.06;45.87
11172;BME280;5642;50.830;12.082;2022-11-20T05:28:27;99006.81;;;0.05;45.92
11172;BME280;5642;50.830;12.082;2022-11-20T05:30:54;99025.72;;;0.12;45.52
11172;BME280;5642;50.830;12.082;2022-11-20T05:33:20;99020.56;;;0.07;45.71
11172;BME280;5642;50.830;12.082;2022-11-20T05:35:46;99026.56;;;0.06;45.78
11172;BME280;5642;50.830;12.082;2022-11-20T05:38:14;99022.25;;;0.04;45.69
11172;BME280;5642;50.830;12.082;2022-11-20T05:40:40;99023.94;;;0.02;45.62
11172;BME280;5642;50.830;12.082;2022-11-20T05:43:06;99022.22;;;0.00;45.76
11172;BME280;5642;50.830;12.082;2022-11-20T05:45:32;99015.38;;;-0.01;45.51
11172;BME280;5642;50.830;12.082;2022-11-20T05:47:59;99020.50;;;-0.02;45.64
11172;BME280;5642;50.830;12.082;2022-11-20T05:50:28;99016.22;;;-0.02;45.54
11172;BME280;5642;50.830;12.082;2022-11-20T05:52:58;99001.59;;;-0.06;45.71
11172;BME280;5642;50.830;12.082;2022-11-20T05:55:25;99002.47;;;-0.08;45.22
11172;BME280;5642;50.830;12.082;2022-11-20T05:57:53;99009.34;;;-0.04;45.32
11172;BME280;5642;50.830;12.082;2022-11-20T06:00:20;99011.03;;;-0.09;45.52
11172;BME280;5642;50.830;12.082;2022-11-20T06:02:46;99004.16;;;-0.12;45.65
11172;BME280;5642;50.830;12.082;2022-11-20T06:05:12;99005.00;;;-0.16;45.27
11172;BME280;5642;50.830;12.082;2022-11-20T06:07:39;99005.81;;;-0.20;45.20
11172;BME280;5642;50.830;12.082;2022-11-20T06:10:05;99008.38;;;-0.21;45.71
11172;BME280;5642;50.830;12.082;2022-11-20T06:12:31;99006.69;;;-0.22;45.67
11172;BME280;5642;50.830;12.082;2022-11-20T06:14:59;99006.69;;;-0.22;45.21
11172;BME280;5642;50.830;12.082;2022-11-20T06:17:25;99006.69;;;-0.22;45.64
11172;BME280;5642;50.830;12.082;2022-11-20T06:19:51;99011.81;;;-0.21;45.12
11172;BME280;5642;50.830;12.082;2022-11-20T06:22:17;98999.81;;;-0.20;45.42
11172;BME280;5642;50.830;12.082;2022-11-20T06:24:43;99003.25;;;-0.23;45.15
11172;BME280;5642;50.830;12.082;2022-11-20T06:27:09;99002.38;;;-0.25;45.05
11172;BME280;5642;50.830;12.082;2022-11-20T06:29:35;98997.22;;;-0.26;45.58
11172;BME280;5642;50.830;12.082;2022-11-20T06:32:01;99013.53;;;-0.29;45.16
11172;BME280;5642;50.830;12.082;2022-11-20T06:34:27;99020.34;;;-0.32;45.76
11172;BME280;5642;50.830;12.082;2022-11-20T06:36:53;99021.19;;;-0.38;45.67
11172;BME280;5642;50.830;12.082;2022-11-20T06:39:19;99015.19;;;-0.37;45.30
11172;BME280;5642;50.830;12.082;2022-11-20T06:41:45;99021.19;;;-0.35;45.60
11172;BME280;5642;50.830;12.082;2022-11-20T06:44:11;99017.78;;;-0.32;45.77
11172;BME280;5642;50.830;12.082;2022-11-20T06:46:38;99026.38;;;-0.30;45.32
11172;BME280;5642;50.830;12.082;2022-11-20T06:49:04;99031.50;;;-0.27;45.32
11172;BME280;5642;50.830;12.082;2022-11-20T06:51:30;99030.66;;;-0.26;45.78
11172;BME280;5642;50.830;12.082;2022-11-20T06:53:56;99030.69;;;-0.20;45.39
11172;BME280;5642;50.830;12.082;2022-11-20T06:56:22;99023.88;;;-0.17;45.38
11172;BME280;5642;50.830;12.082;2022-11-20T06:58:48;99016.16;;;-0.17;45.46
11172;BME280;5642;50.830;12.082;2022-11-20T07:01:14;99012.72;;;-0.16;45.79
11172;BME280;5642;50.830;12.082;2022-11-20T07:03:41;99011.84;;;-0.13;45.74
11172;BME280;5642;50.830;12.082;2022-11-20T07:06:09;99023.03;;;-0.16;45.76
11172;BME280;5642;50.830;12.082;2022-11-20T07:08:35;99015.28;;;-0.22;45.60
11172;BME280;5642;50.830;12.082;2022-11-20T07:11:04;99016.94;;;-0.27;46.07
11172;BME280;5642;50.830;12.082;2022-11-20T07:13:31;99010.91;;;-0.32;46.18
11172;BME280;5642;50.830;12.082;2022-11-20T07:16:03;99025.50;;;-0.28;45.95
11172;BME280;5642;50.830;12.082;2022-11-20T07:18:29;99020.38;;;-0.26;46.19
11172;BME280;5642;50.830;12.082;2022-11-20T07:21:03;99025.56;;;-0.23;46.14
11172;BME280;5642;50.830;12.082;2022-11-20T07:23:30;99027.25;;;-0.21;46.23
11172;BME280;5642;50.830;12.082;2022-11-20T07:25:56;99027.28;;;-0.19;46.21
11172;BME280;5642;50.830;12.082;2022-11-20T07:28:23;99034.19;;;-0.15;46.56
11172;BME280;5642;50.830;12.082;2022-11-20T07:30:50;99023.88;;;-0.12;46.33
11172;BME280;5642;50.830;12.082;2022-11-20T07:33:17;99007.59;;;-0.10;46.26
11172;BME280;5642;50.830;12.082;2022-11-20T07:35:43;99029.09;;;0.03;45.82
11172;BME280;5642;50.830;12.082;2022-11-20T07:38:10;99011.91;;;0.00;45.92
11172;BME280;5642;50.830;12.082;2022-11-20T07:40:36;99015.34;;;0.01;45.89
11172;BME280;5642;50.830;12.082;2022-11-20T07:43:03;99011.09;;;0.00;46.23
11172;BME280;5642;50.830;12.082;2022-11-20T07:45:29;98997.34;;;-0.02;45.95
11172;BME280;5642;50.830;12.082;2022-11-20T07:47:55;98993.03;;;0.02;46.22
11172;BME280;5642;50.830;12.082;2022-11-20T07:50:21;98989.59;;;0.01;46.22
11172;BME280;5642;50.830;12.082;2022-11-20T07:52:47;98985.31;;;-0.03;46.51
11172;BME280;5642;50.830;12.082;2022-11-20T07:55:14;98992.19;;;0.03;46.73
11172;BME280;5642;50.830;12.082;2022-11-20T07:57:40;98996.50;;;0.08;46.44
11172;BME280;5642;50.830;12.082;2022-11-20T08:00:08;98987.09;;;0.18;46.58
11172;BME280;5642;50.830;12.082;2022-11-20T08:02:39;99002.59;;;0.31;46.55
11172;BME280;5642;50.830;12.082;2022-11-20T08:05:06;98989.75;;;0.42;46.38
11172;BME280;5642;50.830;12.082;2022-11-20T08:07:41;98989.75;;;0.57;46.55
11172;BME280;5642;50.830;12.082;2022-11-20T08:10:11;98985.47;;;0.67;46.41
11172;BME280;5642;50.830;12.082;2022-11-20T08:12:44;98987.19;;;0.78;46.52
11172;BME280;5642;50.830;12.082;2022-11-20T08:15:29;98985.50;;;0.87;46.69
11172;BME280;5642;50.830;12.082;2022-11-20T08:18:02;98990.69;;;0.99;46.29
11172;BME280;5642;50.830;12.082;2022-11-20T08:20:29;98985.50;;;1.09;46.38
11172;BME280;5642;50.830;12.082;2022-11-20T08:23:01;98983.75;;;1.24;46.45
11172;BME280;5642;50.830;12.082;2022-11-20T08:25:30;98970.84;;;1.30;46.58
11172;BME280;5642;50.830;12.082;2022-11-20T08:28:01;98979.44;;;1.41;46.50
11172;BME280;5642;50.830;12.082;2022-11-20T08:30:28;98994.91;;;1.62;46.76
11172;BME280;5642;50.830;12.082;2022-11-20T08:32:54;98995.66;;;1.85;46.89
11172;BME280;5642;50.830;12.082;2022-11-20T08:35:21;98966.34;;;2.02;47.11
11172;BME280;5642;50.830;12.082;2022-11-20T08:37:48;98969.56;;;2.48;47.00
11172;BME280;5642;50.830;12.082;2022-11-20T08:40:14;98980.50;;;2.83;47.39
11172;BME280;5642;50.830;12.082;2022-11-20T08:42:47;98967.28;;;3.18;47.51
11172;BME280;5642;50.830;12.082;2022-11-20T08:45:14;98974.69;;;3.54;47.88
11172;BME280;5642;50.830;12.082;2022-11-20T08:47:41;98976.06;;;3.86;47.58
11172;BME280;5642;50.830;12.082;2022-11-20T08:50:12;98978.38;;;4.10;47.49
11172;BME280;5642;50.830;12.082;2022-11-20T08:52:39;98972.06;;;4.31;47.31
11172;BME280;5642;50.830;12.082;2022-11-20T08:55:06;98975.31;;;4.44;47.16
11172;BME280;5642;50.830;12.082;2022-11-20T08:57:36;98966.66;;;4.46;47.32
11172;BME280;5642;50.830;12.082;2022-11-20T09:00:04;98946.91;;;4.38;47.10
11172;BME280;5642;50.830;12.082;2022-11-20T09:02:30;98966.69;;;4.42;47.13
11172;BME280;5642;50.830;12.082;2022-11-20T09:05:02;98963.31;;;4.37;46.90
11172;BME280;5642;50.830;12.082;2022-11-20T09:07:29;98974.47;;;4.42;47.08
11172;BME280;5642;50.830;12.082;2022-11-20T09:09:55;98967.66;;;4.34;46.58
11172;BME280;5642;50.830;12.082;2022-11-20T09:12:22;98956.47;;;4.32;46.92
11172;BME280;5642;50.830;12.082;2022-11-20T09:14:47;98946.13;;;4.31;47.12
11172;BME280;5642;50.830;12.082;2022-11-20T09:17:14;98942.66;;;4.32;47.16
11172;BME280;5642;50.830;12.082;2022-11-20T09:19:40;98960.53;;;4.50;47.46
11172;BME280;5642;50.830;12.082;2022-11-20T09:22:07;98960.44;;;4.58;47.77
11172;BME280;5642;50.830;12.082;2022-11-20T09:24:34;98974.06;;;4.70;47.88
11172;BME280;5642;50.830;12.082;2022-11-20T09:27:04;98968.66;;;4.86;47.40
11172;BME280;5642;50.830;12.082;2022-11-20T09:29:30;98977.16;;;4.95;47.26
11172;BME280;5642;50.830;12.082;2022-11-20T09:31:57;98969.28;;;5.00;47.40
11172;BME280;5642;50.830;12.082;2022-11-20T09:34:23;98959.72;;;5.03;47.83
11172;BME280;5642;50.830;12.082;2022-11-20T09:36:49;98979.28;;;5.23;47.67
11172;BME280;5642;50.830;12.082;2022-11-20T09:39:15;98975.59;;;5.36;47.69
11172;BME280;5642;50.830;12.082;2022-11-20T09:42:03;98966.72;;;5.47;47.33
11172;BME280;5642;50.830;12.082;2022-11-20T09:47:37;98956.00;;;5.66;47.07
11172;BME280;5642;50.830;12.082;2022-11-20T09:50:14;98952.34;;;5.76;47.04
11172;BME280;5642;50.830;12.082;2022-11-20T09:55:36;98950.34;;;5.90;47.31
11172;BME280;5642;50.830;12.082;2022-11-20T09:58:06;98941.53;;;5.97;47.40
11172;BME280;5642;50.830;12.082;2022-11-20T10:00:35;98944.81;;;6.07;47.35
11172;BME280;5642;50.830;12.082;2022-11-20T10:03:13;98941.19;;;6.14;47.64
11172;BME280;5642;50.830;12.082;2022-11-20T10:05:53;98944.53;;;6.20;47.29
11172;BME280;5642;50.830;12.082;2022-11-20T10:11:07;98937.19;;;6.39;46.93
11172;BME280;5642;50.830;12.082;2022-11-20T10:17:29;98925.88;;;6.40;47.05
11172;BME280;5642;50.830;12.082;2022-11-20T10:20:14;98924.81;;;6.49;47.34
11172;BME280;5642;50.830;12.082;2022-11-20T10:30:37;98907.25;;;6.94;47.42
11172;BME280;5642;50.830;12.082;2022-11-20T10:33:15;98905.34;;;7.00;47.62
11172;BME280;5642;50.830;12.082;2022-11-20T10:38:30;98897.81;;;7.24;47.59
11172;BME280;5642;50.830;12.082;2022-11-20T10:41:02;98902.66;;;7.37;47.50
11172;BME280;5642;50.830;12.082;2022-11-20T10:43:49;98900.09;;;7.36;47.69
11172;BME280;5642;50.830;12.082;2022-11-20T10:46:21;98905.31;;;7.36;47.44
11172;BME280;5642;50.830;12.082;2022-11-20T10:48:48;98903.56;;;7.36;47.39
11172;BME280;5642;50.830;12.082;2022-11-20T10:56:57;98896.44;;;7.43;47.59
11172;BME280;5642;50.830;12.082;2022-11-20T11:02:23;98888.69;;;7.40;46.95
11172;BME280;5642;50.830;12.082;2022-11-20T11:04:54;98895.44;;;7.47;47.76
11172;BME280;5642;50.830;12.082;2022-11-20T11:07:24;98899.66;;;7.53;47.63
11172;BME280;5642;50.830;12.082;2022-11-20T11:09:55;98879.59;;;7.55;47.47
11172;BME280;5642;50.830;12.082;2022-11-20T11:12:24;98888.97;;;7.60;47.33
11172;BME280;5642;50.830;12.082;2022-11-20T11:14:52;98880.16;;;7.66;47.19
11172;BME280;5642;50.830;12.082;2022-11-20T11:17:33;98879.31;;;7.65;47.76
11172;BME280;5642;50.830;12.082;2022-11-20T11:20:18;98860.59;;;7.51;47.77
11172;BME280;5642;50.830;12.082;2022-11-20T11:22:48;98870.03;;;7.55;47.45
11172;BME280;5642;50.830;12.082;2022-11-20T11:25:29;98871.75;;;7.56;47.63
11172;BME280;5642;50.830;12.082;2022-11-20T11:27:58;98869.84;;;7.61;47.82
11172;BME280;5642;50.830;12.082;2022-11-20T11:30:26;98847.66;;;7.46;47.32
11172;BME280;5642;50.830;12.082;2022-11-20T11:33:05;98861.13;;;7.62;47.78
11172;BME280;5642;50.830;12.082;2022-11-20T11:35:33;98868.69;;;7.71;47.99
11172;BME280;5642;50.830;12.082;2022-11-20T11:38:11;98869.53;;;7.73;47.80
11172;BME280;5642;50.830;12.082;2022-11-20T11:40:40;98859.13;;;7.72;47.36
11172;BME280;5642;50.830;12.082;2022-11-20T11:43:17;98858.97;;;7.76;47.85
11172;BME280;5642;50.830;12.082;2022-11-20T11:46:29;98865.94;;;7.76;47.64
11172;BME280;5642;50.830;12.082;2022-11-20T11:54:10;98862.19;;;7.55;48.01
11172;BME280;5642;50.830;12.082;2022-11-20T11:56:39;98845.34;;;7.37;47.83
11172;BME280;5642;50.830;12.082;2022-11-20T11:59:12;98819.75;;;7.21;47.84
11172;BME280;5642;50.830;12.082;2022-11-20T12:01:44;98848.00;;;7.36;47.76
11172;BME280;5642;50.830;12.082;2022-11-20T12:06:45;98845.13;;;7.45;47.94
11172;BME280;5642;50.830;12.082;2022-11-20T12:09:13;98842.38;;;7.50;47.84
11172;BME280;5642;50.830;12.082;2022-11-20T12:11:47;98846.47;;;7.60;47.55
11172;BME280;5642;50.830;12.082;2022-11-20T12:14:24;98841.97;;;7.65;47.51
11172;BME280;5642;50.830;12.082;2022-11-20T12:16:53;98839.13;;;7.72;47.40
11172;BME280;5642;50.830;12.082;2022-11-20T12:19:24;98831.16;;;7.77;47.02
11172;BME280;5642;50.830;12.082;2022-11-20T12:22:02;98832.56;;;7.89;46.91
11172;BME280;5642;50.830;12.082;2022-11-20T12:24:49;98800.75;;;7.77;47.10
11172;BME280;5642;50.830;12.082;2022-11-20T12:27:35;98820.72;;;8.06;46.98
11172;BME280;5642;50.830;12.082;2022-11-20T12:32:41;98814.25;;;8.18;47.48
11172;BME280;5642;50.830;12.082;2022-11-20T12:38:36;98815.03;;;8.21;46.47
11172;BME280;5642;50.830;12.082;2022-11-20T12:41:18;98807.28;;;8.18;47.44
11172;BME280;5642;50.830;12.082;2022-11-20T12:47:22;98787.50;;;8.11;47.17
11172;BME280;5642;50.830;12.082;2022-11-20T12:52:38;98815.31;;;8.12;46.84
11172;BME280;5642;50.830;12.082;2022-11-20T12:58:27;98811.38;;;7.99;47.71
11172;BME280;5642;50.830;12.082;2022-11-20T13:01:24;98814.69;;;8.04;47.21
11172;BME280;5642;50.830;12.082;2022-11-20T13:07:12;98816.19;;;8.11;47.47
11172;BME280;5642;50.830;12.082;2022-11-20T13:09:46;98819.53;;;8.16;47.12
11172;BME280;5642;50.830;12.082;2022-11-20T13:12:24;98821.09;;;8.22;47.54
11172;BME280;5642;50.830;12.082;2022-11-20T13:14:55;98831.38;;;8.26;47.64
11172;BME280;5642;50.830;12.082;2022-11-20T13:17:41;98830.28;;;8.35;47.32
11172;BME280;5642;50.830;12.082;2022-11-20T13:20:15;98832.69;;;8.41;47.10
11172;BME280;5642;50.830;12.082;2022-11-20T13:22:47;98825.63;;;8.45;47.29
11172;BME280;5642;50.830;12.082;2022-11-20T13:27:50;98820.06;;;8.55;46.96
11172;BME280;5642;50.830;12.082;2022-11-20T13:30:22;98822.41;;;8.63;46.53
11172;BME280;5642;50.830;12.082;2022-11-20T13:32:53;98831.09;;;8.63;46.88
11172;BME280;5642;50.830;12.082;2022-11-20T13:35:33;98824.22;;;8.61;46.97
11172;BME280;5642;50.830;12.082;2022-11-20T13:38:08;98829.44;;;8.61;46.92
11172;BME280;5642;50.830;12.082;2022-11-20T13:41:01;98822.50;;;8.60;47.24
11172;BME280;5642;50.830;12.082;2022-11-20T13:43:48;98826.09;;;8.57;47.16
11172;BME280;5642;50.830;12.082;2022-11-20T13:46:15;98820.81;;;8.59;47.49
11172;BME280;5642;50.830;12.082;2022-11-20T13:48:44;98818.28;;;8.56;47.29
11172;BME280;5642;50.830;12.082;2022-11-20T13:51:37;98798.75;;;8.41;47.17
11172;BME280;5642;50.830;12.082;2022-11-20T14:00:19;98805.56;;;8.17;47.21
11172;BME280;5642;50.830;12.082;2022-11-20T14:05:25;98825.09;;;8.06;47.46
11172;BME280;5642;50.830;12.082;2022-11-20T14:07:52;98818.25;;;8.02;47.41
11172;BME280;5642;50.830;12.082;2022-11-20T14:10:22;98815.66;;;8.02;47.47
11172;BME280;5642;50.830;12.082;2022-11-20T14:12:49;98815.69;;;8.00;47.11
11172;BME280;5642;50.830;12.082;2022-11-20T14:15:33;98820.94;;;7.99;47.11
11172;BME280;5642;50.830;12.082;2022-11-20T14:18:13;98814.91;;;7.97;46.86
11172;BME280;5642;50.830;12.082;2022-11-20T14:20:41;98802.97;;;7.90;46.69
11172;BME280;5642;50.830;12.082;2022-11-20T14:23:10;98824.56;;;7.95;47.09
11172;BME280;5642;50.830;12.082;2022-11-20T14:25:42;98807.31;;;7.89;46.82
11172;BME280;5642;50.830;12.082;2022-11-20T14:28:28;98807.63;;;7.80;46.87
11172;BME280;5642;50.830;12.082;2022-11-20T14:30:55;98817.19;;;7.79;47.57
11172;BME280;5642;50.830;12.082;2022-11-20T14:33:25;98821.63;;;7.76;46.93
11172;BME280;5642;50.830;12.082;2022-11-20T14:35:54;98802.03;;;7.63;46.85